NORTHEAST SUFFOLK  -  Special Weather Statement Special Weather Statement        NORTHERN NASSAU  -  Special Weather Statement Special Weather Statement        NORTHWEST SUFFOLK  -  Special Weather Statement Special Weather Statement        SOUTHEAST SUFFOLK  -  Special Weather Statement Special Weather Statement        SOUTHERN NASSAU  -  Special Weather Statement Special Weather Statement        SOUTHWEST SUFFOLK  -  Special Weather Statement Special Weather Statement      

Active alerts

Northern Nassau
  Details for Northern Nassau Special Weather Statement
Southern Nassau
  Details for Southern Nassau Special Weather Statement
Northwest Suffolk
  Details for Northwest Suffolk Special Weather Statement
Southwest Suffolk
  Details for Southwest Suffolk Special Weather Statement
Northeast Suffolk
  Details for Northeast Suffolk Special Weather Statement
Southeast Suffolk
  Details for Southeast Suffolk Special Weather Statement


WXM80 ListenWXM80 Stop

You find our weather info also at:

UK Metoffice

WeatherCloud

Weather Underground

Northeastern Weather Network

AWEKAS

Citizen Weather Observer Program (CWOP)

HAMweather, WeatherForYou, PWS Weather


Weather Underground History page Text

Daily Summary for March 31, 2016 Units:  English    Metric   Both
« Previous Day
Next Day »
Daily Weekly Monthly Yearly Custom
  High: Low: Average:
Temperature: 70.8 °F 45.5 °F 58.7 °F
Dew Point: 58.5 °F 36.8 °F 49.2 °F
Humidity: 92 % 51 % 72 %
Wind Speed: 14.6 mph 1.7 mph 7.3 mph
Wind Gust: 24.2 mph - -
Wind:- - SSW
Pressure: 30.14 in 29.76 in -
Precipitation: 0.00 in    
Historical Graphs
 
 
Tabular Data for March 31, 2016
Time Temperature Dew Point Pressure Wind Wind Speed Wind Gust Humidity Rainfall Rate (Hourly)
00:05 45.5 °F 37.3 °F 30.14 in SSW 5.0 mph 10.4 mph 73 % 0.00 in
00:10 45.5 °F 37.3 °F 30.14 in SW 7.1 mph 11.5 mph 73 % 0.00 in
00:15 45.5 °F 37.3 °F 30.13 in SSW 5.7 mph 9.2 mph 73 % 0.00 in
00:20 45.6 °F 37.1 °F 30.13 in WSW 4.7 mph 9.2 mph 72 % 0.00 in
00:25 45.6 °F 37.1 °F 30.12 in South 7.4 mph 11.5 mph 72 % 0.00 in
00:30 45.7 °F 36.8 °F 30.12 in SE 3.3 mph 6.9 mph 71 % 0.00 in
00:35 45.8 °F 36.9 °F 30.12 in WSW 6.4 mph 13.8 mph 71 % 0.00 in
00:40 45.9 °F 37.0 °F 30.12 in South 3.3 mph 5.8 mph 71 % 0.00 in
00:45 46.1 °F 37.2 °F 30.12 in SSW 6.3 mph 11.5 mph 71 % 0.00 in
00:50 46.2 °F 37.3 °F 30.12 in SW 6.8 mph 11.5 mph 71 % 0.00 in
00:56 46.3 °F 37.4 °F 30.12 in SW 6.0 mph 12.7 mph 71 % 0.00 in
01:01 46.5 °F 38.0 °F 30.11 in South 6.6 mph 12.7 mph 72 % 0.00 in
01:06 46.5 °F 38.0 °F 30.12 in SSW 4.3 mph 8.1 mph 72 % 0.00 in
01:11 46.5 °F 38.3 °F 30.11 in South 2.8 mph 6.9 mph 73 % 0.00 in
01:16 46.6 °F 38.8 °F 30.11 in SW 4.6 mph 10.4 mph 74 % 0.00 in
01:21 46.6 °F 38.8 °F 30.11 in SW 4.5 mph 11.0 mph 74 % 0.00 in
01:26 46.5 °F 39.0 °F 30.10 in SSW 3.5 mph 5.8 mph 75 % 0.00 in
01:31 46.5 °F 39.0 °F 30.09 in SW 1.7 mph 6.0 mph 75 % 0.00 in
01:36 46.5 °F 39.0 °F 30.09 in SSW 5.1 mph 9.2 mph 75 % 0.00 in
01:41 46.5 °F 39.0 °F 30.09 in WSW 5.2 mph 10.4 mph 75 % 0.00 in
01:52 46.6 °F 39.1 °F 30.09 in WSW 7.3 mph 12.7 mph 75 % 0.00 in
01:57 46.8 °F 38.9 °F 30.09 in SW 6.7 mph 11.5 mph 74 % 0.00 in
02:02 46.9 °F 39.0 °F 30.09 in SSW 5.9 mph 9.2 mph 74 % 0.00 in
02:07 47.0 °F 39.1 °F 30.09 in SW 5.1 mph 7.0 mph 74 % 0.00 in
02:12 47.1 °F 39.2 °F 30.09 in SSW 5.6 mph 7.0 mph 74 % 0.00 in
02:17 47.2 °F 39.3 °F 30.09 in WSW 5.1 mph 8.1 mph 74 % 0.00 in
02:22 47.2 °F 39.3 °F 30.09 in SSW 6.5 mph 10.4 mph 74 % 0.00 in
02:27 47.3 °F 39.4 °F 30.08 in SW 5.8 mph 11.0 mph 74 % 0.00 in
02:32 47.4 °F 39.9 °F 30.08 in SSW 4.5 mph 9.2 mph 75 % 0.00 in
02:38 47.5 °F 40.0 °F 30.08 in SW 8.2 mph 12.7 mph 75 % 0.00 in
02:43 47.7 °F 40.2 °F 30.08 in SSW 4.0 mph 9.2 mph 75 % 0.00 in
02:48 47.7 °F 40.2 °F 30.08 in SSW 4.8 mph 8.1 mph 75 % 0.00 in
02:53 47.8 °F 40.6 °F 30.07 in WSW 2.7 mph 6.9 mph 76 % 0.00 in
02:58 47.9 °F 40.7 °F 30.07 in SW 5.7 mph 11.5 mph 76 % 0.00 in
03:03 48.0 °F 40.8 °F 30.07 in SW 6.8 mph 10.4 mph 76 % 0.00 in
03:08 48.0 °F 41.1 °F 30.07 in SW 5.5 mph 6.9 mph 77 % 0.00 in
03:13 48.0 °F 41.1 °F 30.07 in SW 5.8 mph 9.2 mph 77 % 0.00 in
03:18 48.0 °F 41.1 °F 30.07 in SSW 3.6 mph 9.2 mph 77 % 0.00 in
03:23 48.0 °F 41.5 °F 30.06 in WSW 3.4 mph 6.9 mph 78 % 0.00 in
03:29 48.1 °F 41.6 °F 30.06 in SSW 4.8 mph 12.7 mph 78 % 0.00 in
03:34 48.2 °F 41.7 °F 30.06 in SW 7.4 mph 11.5 mph 78 % 0.00 in
03:39 48.3 °F 41.8 °F 30.06 in SSW 4.6 mph 7.0 mph 78 % 0.00 in
03:44 48.4 °F 41.9 °F 30.06 in SSW 7.3 mph 13.8 mph 78 % 0.00 in
03:49 48.6 °F 42.0 °F 30.06 in SSW 3.5 mph 6.9 mph 78 % 0.00 in
03:54 48.6 °F 42.0 °F 30.05 in SW 3.9 mph 11.5 mph 78 % 0.00 in
03:59 48.8 °F 42.2 °F 30.05 in SSW 5.9 mph 12.7 mph 78 % 0.00 in
04:04 48.8 °F 42.2 °F 30.06 in SW 7.7 mph 14.0 mph 78 % 0.00 in
04:09 48.9 °F 42.7 °F 30.05 in SSW 5.8 mph 11.5 mph 79 % 0.00 in
04:14 48.9 °F 42.7 °F 30.05 in South 7.2 mph 11.5 mph 79 % 0.00 in
04:20 49.0 °F 42.8 °F 30.05 in SSW 7.1 mph 8.0 mph 79 % 0.00 in
04:25 49.0 °F 42.8 °F 30.05 in SW 4.0 mph 8.1 mph 79 % 0.00 in
04:35 49.0 °F 43.1 °F 30.05 in WSW 5.4 mph 10.4 mph 80 % 0.00 in
04:40 49.0 °F 43.4 °F 30.05 in SSW 3.3 mph 6.9 mph 81 % 0.00 in
04:45 49.0 °F 43.4 °F 30.05 in SW 3.3 mph 7.0 mph 81 % 0.00 in
04:50 49.0 °F 43.4 °F 30.05 in SW 5.9 mph 9.2 mph 81 % 0.00 in
04:55 49.0 °F 43.4 °F 30.05 in WSW 3.5 mph 6.9 mph 81 % 0.00 in
05:00 49.0 °F 43.7 °F 30.05 in SW 6.7 mph 10.4 mph 82 % 0.00 in
05:05 49.0 °F 43.7 °F 30.05 in SSW 4.9 mph 6.9 mph 82 % 0.00 in
05:11 49.0 °F 43.7 °F 30.05 in SW 4.0 mph 6.9 mph 82 % 0.00 in
05:16 49.0 °F 44.1 °F 30.05 in South 4.1 mph 6.0 mph 83 % 0.00 in
05:21 48.9 °F 44.0 °F 30.04 in SW 5.3 mph 8.1 mph 83 % 0.00 in
05:26 49.0 °F 44.1 °F 30.04 in SW 4.1 mph 5.8 mph 83 % 0.00 in
05:31 49.0 °F 44.4 °F 30.04 in SSW 2.8 mph 10.4 mph 84 % 0.00 in
05:41 49.1 °F 44.5 °F 30.04 in SW 6.2 mph 10.0 mph 84 % 0.00 in
05:46 49.2 °F 44.6 °F 30.03 in SSW 6.3 mph 13.8 mph 84 % 0.00 in
05:51 49.2 °F 44.6 °F 30.03 in SSW 7.3 mph 8.1 mph 84 % 0.00 in
05:57 49.2 °F 44.6 °F 30.03 in SSW 4.0 mph 8.1 mph 84 % 0.00 in
06:02 49.3 °F 44.7 °F 30.03 in SSW 4.3 mph 9.2 mph 84 % 0.00 in
06:07 49.4 °F 45.1 °F 30.02 in SSW 4.5 mph 9.2 mph 85 % 0.00 in
06:12 49.5 °F 45.2 °F 30.02 in South 3.6 mph 6.9 mph 85 % 0.00 in
06:17 49.6 °F 45.3 °F 30.01 in SSW 5.1 mph 10.4 mph 85 % 0.00 in
06:22 49.7 °F 45.4 °F 30.01 in SW 8.9 mph 12.7 mph 85 % 0.00 in
06:27 49.8 °F 45.5 °F 30.01 in SSW 4.0 mph 5.8 mph 85 % 0.00 in
06:32 49.8 °F 45.5 °F 30.02 in South 3.6 mph 5.8 mph 85 % 0.00 in
06:37 49.9 °F 45.6 °F 30.02 in SW 4.2 mph 7.0 mph 85 % 0.00 in
06:42 50.1 °F 45.8 °F 30.02 in South 7.9 mph 11.5 mph 85 % 0.00 in
06:48 50.3 °F 46.0 °F 30.02 in SW 11.2 mph 11.2 mph 85 % 0.00 in
06:53 50.6 °F 45.9 °F 30.02 in South 2.8 mph 5.8 mph 84 % 0.00 in
06:58 50.7 °F 46.0 °F 30.02 in South 5.5 mph 10.0 mph 84 % 0.00 in
07:03 50.9 °F 46.2 °F 30.02 in SSW 5.1 mph 15.0 mph 84 % 0.00 in
07:13 51.4 °F 46.4 °F 30.02 in SSE 7.4 mph 11.5 mph 83 % 0.00 in
07:18 51.6 °F 46.6 °F 30.03 in SW 8.5 mph 11.5 mph 83 % 0.00 in
07:23 51.8 °F 46.5 °F 30.02 in SW 4.3 mph 11.5 mph 82 % 0.00 in
07:28 52.1 °F 46.8 °F 30.02 in SSW 7.8 mph 12.7 mph 82 % 0.00 in
07:33 52.3 °F 47.0 °F 30.02 in SSW 5.4 mph 9.2 mph 82 % 0.00 in
07:44 52.9 °F 47.2 °F 30.03 in SW 5.4 mph 10.4 mph 81 % 0.00 in
07:49 53.2 °F 47.2 °F 30.03 in SSW 6.8 mph 15.0 mph 80 % 0.00 in
07:54 53.6 °F 47.2 °F 30.02 in SW 7.4 mph 16.1 mph 79 % 0.00 in
07:59 54.1 °F 47.4 °F 30.02 in SSE 8.8 mph 16.1 mph 78 % 0.00 in
08:04 54.7 °F 47.6 °F 30.02 in SSW 3.3 mph 6.9 mph 77 % 0.00 in
08:09 55.4 °F 48.0 °F 30.02 in SSE 8.0 mph 11.5 mph 76 % 0.00 in
08:14 56.0 °F 48.2 °F 30.01 in SSW 4.7 mph 8.0 mph 75 % 0.00 in
08:19 56.5 °F 48.3 °F 30.01 in SW 9.3 mph 15.0 mph 74 % 0.00 in
08:24 57.1 °F 48.5 °F 30.01 in SE 5.8 mph 11.5 mph 73 % 0.00 in
08:30 57.7 °F 48.7 °F 30.01 in SSW 5.5 mph 13.8 mph 72 % 0.00 in
08:35 58.1 °F 48.7 °F 30.01 in SSW 6.9 mph 11.5 mph 71 % 0.00 in
08:40 58.6 °F 48.8 °F 30.01 in SSW 6.8 mph 11.5 mph 70 % 0.00 in
08:45 59.0 °F 48.8 °F 30.01 in SW 4.7 mph 15.0 mph 69 % 0.00 in
08:50 59.5 °F 49.3 °F 30.01 in SSW 8.1 mph 15.0 mph 69 % 0.00 in
08:55 59.9 °F 49.3 °F 30.00 in South 8.2 mph 12.7 mph 68 % 0.00 in
09:00 60.3 °F 49.7 °F 30.00 in SSW 8.9 mph 18.4 mph 68 % 0.00 in
09:05 60.6 °F 49.6 °F 30.00 in SSW 7.9 mph 10.4 mph 67 % 0.00 in
09:10 60.9 °F 49.5 °F 29.99 in SW 11.0 mph 24.2 mph 66 % 0.00 in
09:15 61.2 °F 50.2 °F 29.99 in South 8.6 mph 11.5 mph 67 % 0.00 in
09:26 61.7 °F 50.2 °F 29.99 in SSW 7.0 mph 11.5 mph 66 % 0.00 in
09:31 62.0 °F 50.1 °F 29.99 in SSW 5.4 mph 9.2 mph 65 % 0.00 in
09:36 62.4 °F 50.1 °F 29.99 in South 6.2 mph 10.4 mph 64 % 0.00 in
09:41 62.8 °F 50.0 °F 29.99 in South 12.9 mph 21.9 mph 63 % 0.00 in
09:46 62.8 °F 50.0 °F 29.99 in SSW 9.1 mph 13.8 mph 63 % 0.00 in
09:51 62.9 °F 50.1 °F 29.99 in SSW 8.2 mph 11.5 mph 63 % 0.00 in
09:56 63.1 °F 50.3 °F 30.00 in SSE 6.1 mph 12.7 mph 63 % 0.00 in
10:01 63.5 °F 50.7 °F 30.00 in SSE 6.9 mph 11.5 mph 63 % 0.00 in
10:06 63.9 °F 50.6 °F 30.00 in SSE 7.4 mph 8.1 mph 62 % 0.00 in
10:12 64.2 °F 50.5 °F 30.00 in SW 9.8 mph 12.0 mph 61 % 0.00 in
10:22 64.7 °F 50.5 °F 29.99 in WSW 10.6 mph 20.0 mph 60 % 0.00 in
10:27 65.0 °F 51.2 °F 30.00 in South 7.4 mph 17.0 mph 61 % 0.00 in
10:32 65.1 °F 51.3 °F 29.99 in South 5.6 mph 10.4 mph 61 % 0.00 in
10:37 65.2 °F 51.0 °F 29.98 in South 4.9 mph 10.0 mph 60 % 0.00 in
10:42 65.3 °F 50.6 °F 29.98 in SSW 5.4 mph 6.9 mph 59 % 0.00 in
10:47 65.4 °F 50.7 °F 29.98 in South 6.2 mph 13.8 mph 59 % 0.00 in
10:52 65.5 °F 50.8 °F 29.98 in SSW 5.7 mph 12.7 mph 59 % 0.00 in
11:03 65.7 °F 51.0 °F 29.97 in WSW 5.9 mph 10.4 mph 59 % 0.00 in
11:08 65.5 °F 50.8 °F 29.96 in South 7.6 mph 13.8 mph 59 % 0.00 in
11:13 65.3 °F 50.6 °F 29.96 in SSW 7.9 mph 13.0 mph 59 % 0.00 in
11:18 65.3 °F 51.5 °F 29.96 in SW 8.5 mph 17.0 mph 61 % 0.00 in
11:23 65.8 °F 51.1 °F 29.96 in SSW 8.7 mph 12.7 mph 59 % 0.00 in
11:28 66.2 °F 51.4 °F 29.96 in SSW 7.8 mph 12.7 mph 59 % 0.00 in
11:33 66.7 °F 52.4 °F 29.96 in South 4.6 mph 11.5 mph 60 % 0.00 in
11:38 67.1 °F 52.3 °F 29.97 in SSW 8.2 mph 12.7 mph 59 % 0.00 in
11:43 67.5 °F 52.2 °F 29.96 in SSW 6.4 mph 11.5 mph 58 % 0.00 in
11:48 67.9 °F 51.6 °F 29.96 in WNW 7.3 mph 11.5 mph 56 % 0.00 in
11:54 68.2 °F 51.9 °F 29.96 in SW 11.1 mph 18.4 mph 56 % 0.00 in
11:59 68.0 °F 51.7 °F 29.96 in SW 6.2 mph 18.4 mph 56 % 0.00 in
12:04 68.2 °F 51.4 °F 29.96 in SW 10.6 mph 20.7 mph 55 % 0.00 in
12:09 68.2 °F 52.9 °F 29.96 in WSW 4.2 mph 8.1 mph 58 % 0.00 in
12:14 68.8 °F 52.0 °F 29.95 in SW 11.1 mph 15.0 mph 55 % 0.00 in
12:19 69.2 °F 52.3 °F 29.95 in South 6.7 mph 11.5 mph 55 % 0.00 in
12:24 69.6 °F 52.7 °F 29.94 in WSW 7.2 mph 15.0 mph 55 % 0.00 in
12:29 70.0 °F 52.6 °F 29.95 in SW 8.6 mph 17.3 mph 54 % 0.00 in
12:34 70.2 °F 52.3 °F 29.94 in South 10.3 mph 15.0 mph 53 % 0.00 in
12:39 70.4 °F 53.0 °F 29.94 in SW 7.7 mph 11.5 mph 54 % 0.00 in
12:45 70.3 °F 52.4 °F 29.94 in South 9.6 mph 19.6 mph 53 % 0.00 in
13:00 69.9 °F 52.5 °F 29.93 in SSW 5.0 mph 9.2 mph 54 % 0.00 in
13:05 70.0 °F 52.6 °F 29.93 in South 4.9 mph 9.2 mph 54 % 0.00 in
13:10 70.1 °F 52.2 °F 29.93 in South 13.0 mph 21.9 mph 53 % 0.00 in
13:20 69.2 °F 51.8 °F 29.92 in SSW 11.6 mph 17.0 mph 54 % 0.00 in
13:25 69.2 °F 52.3 °F 29.92 in SW 7.5 mph 10.0 mph 55 % 0.00 in
13:30 69.5 °F 51.6 °F 29.93 in SSW 9.8 mph 16.1 mph 53 % 0.00 in
13:46 70.4 °F 53.0 °F 29.92 in South 6.0 mph 11.5 mph 54 % 0.00 in
13:51 70.6 °F 52.6 °F 29.92 in SSW 13.2 mph 20.7 mph 53 % 0.00 in
13:56 70.6 °F 53.1 °F 29.91 in South 6.2 mph 11.5 mph 54 % 0.00 in
14:01 70.8 °F 52.3 °F 29.91 in SSW 11.1 mph 16.1 mph 52 % 0.00 in
14:06 70.6 °F 52.6 °F 29.91 in South 6.3 mph 10.4 mph 53 % 0.00 in
14:11 70.2 °F 51.2 °F 29.91 in South 8.1 mph 18.4 mph 51 % 0.00 in
14:16 69.9 °F 52.0 °F 29.91 in South 9.7 mph 15.0 mph 53 % 0.00 in
14:21 70.1 °F 52.2 °F 29.91 in SSW 7.5 mph 16.1 mph 53 % 0.00 in
14:27 69.8 °F 51.4 °F 29.90 in WSW 9.0 mph 19.6 mph 52 % 0.00 in
14:32 69.7 °F 51.8 °F 29.90 in South 7.5 mph 10.4 mph 53 % 0.00 in
14:37 69.7 °F 51.8 °F 29.90 in South 3.0 mph 9.2 mph 53 % 0.00 in
14:42 69.5 °F 51.6 °F 29.90 in SSW 7.0 mph 14.0 mph 53 % 0.00 in
14:47 69.2 °F 51.3 °F 29.90 in SW 10.7 mph 19.6 mph 53 % 0.00 in
14:52 68.7 °F 51.4 °F 29.90 in SW 11.3 mph 24.2 mph 54 % 0.00 in
14:57 68.7 °F 51.9 °F 29.90 in SSW 11.3 mph 19.6 mph 55 % 0.00 in
15:02 68.9 °F 51.6 °F 29.89 in WSW 7.7 mph 18.4 mph 54 % 0.00 in
15:07 68.7 °F 50.9 °F 29.89 in South 14.6 mph 20.7 mph 53 % 0.00 in
15:12 68.0 °F 51.2 °F 29.89 in SSW 9.3 mph 16.1 mph 55 % 0.00 in
15:18 67.8 °F 51.5 °F 29.89 in SSW 9.4 mph 17.3 mph 56 % 0.00 in
15:23 68.0 °F 51.7 °F 29.88 in SSW 7.2 mph 15.0 mph 56 % 0.00 in
15:28 68.1 °F 51.3 °F 29.88 in SSW 9.7 mph 12.7 mph 55 % 0.00 in
15:33 68.1 °F 51.8 °F 29.88 in SSW 4.6 mph 6.9 mph 56 % 0.00 in
15:38 68.1 °F 51.8 °F 29.88 in SW 10.0 mph 19.6 mph 56 % 0.00 in
15:43 68.1 °F 52.3 °F 29.88 in SSW 8.8 mph 16.1 mph 57 % 0.00 in
15:48 68.1 °F 51.8 °F 29.88 in WSW 5.8 mph 16.1 mph 56 % 0.00 in
15:53 68.3 °F 52.0 °F 29.87 in SSW 7.1 mph 13.8 mph 56 % 0.00 in
15:58 68.3 °F 52.5 °F 29.87 in SW 8.0 mph 12.7 mph 57 % 0.00 in
16:03 68.0 °F 52.2 °F 29.88 in South 6.6 mph 16.1 mph 57 % 0.00 in
16:09 67.8 °F 51.5 °F 29.86 in SSE 9.1 mph 11.5 mph 56 % 0.00 in
16:14 67.7 °F 51.4 °F 29.86 in South 5.5 mph 15.0 mph 56 % 0.00 in
16:19 67.9 °F 52.1 °F 29.86 in South 6.1 mph 12.7 mph 57 % 0.00 in
16:29 67.8 °F 52.0 °F 29.86 in SSW 7.0 mph 15.0 mph 57 % 0.00 in
16:34 67.6 °F 51.8 °F 29.85 in South 7.9 mph 12.7 mph 57 % 0.00 in
16:39 67.5 °F 51.7 °F 29.85 in SSW 10.4 mph 13.8 mph 57 % 0.00 in
16:44 67.4 °F 52.1 °F 29.85 in SW 8.3 mph 14.0 mph 58 % 0.00 in
16:49 67.2 °F 51.9 °F 29.85 in SW 9.4 mph 20.7 mph 58 % 0.00 in
16:54 66.8 °F 51.5 °F 29.85 in SSW 7.7 mph 15.0 mph 58 % 0.00 in
17:00 66.5 °F 51.7 °F 29.85 in SSW 7.3 mph 17.3 mph 59 % 0.00 in
17:05 66.3 °F 52.0 °F 29.85 in SSW 5.5 mph 9.2 mph 60 % 0.00 in
17:10 66.3 °F 52.0 °F 29.85 in South 13.2 mph 24.2 mph 60 % 0.00 in
17:15 66.0 °F 52.2 °F 29.85 in South 9.0 mph 16.1 mph 61 % 0.00 in
17:20 65.8 °F 52.0 °F 29.85 in SW 9.3 mph 15.0 mph 61 % 0.00 in
17:25 65.5 °F 52.1 °F 29.85 in South 5.5 mph 11.0 mph 62 % 0.00 in
17:30 65.1 °F 51.8 °F 29.85 in South 7.3 mph 15.0 mph 62 % 0.00 in
17:35 64.7 °F 51.8 °F 29.85 in SSW 11.9 mph 20.0 mph 63 % 0.00 in
17:40 64.3 °F 51.9 °F 29.84 in South 6.5 mph 15.0 mph 64 % 0.00 in
17:45 64.1 °F 51.7 °F 29.84 in SW 6.2 mph 12.0 mph 64 % 0.00 in
17:51 63.8 °F 51.8 °F 29.84 in South 8.5 mph 13.8 mph 65 % 0.00 in
17:56 63.6 °F 52.0 °F 29.84 in SSW 7.1 mph 11.5 mph 66 % 0.00 in
18:01 63.4 °F 52.2 °F 29.84 in SSW 8.9 mph 13.0 mph 67 % 0.00 in
18:06 63.2 °F 52.9 °F 29.84 in SSW 8.6 mph 19.6 mph 69 % 0.00 in
18:11 63.0 °F 53.1 °F 29.83 in SW 8.8 mph 13.0 mph 70 % 0.00 in
18:21 62.7 °F 53.2 °F 29.83 in South 10.2 mph 16.1 mph 71 % 0.00 in
18:26 62.7 °F 53.2 °F 29.83 in South 11.0 mph 17.3 mph 71 % 0.00 in
18:31 62.6 °F 52.7 °F 29.83 in SSE 7.5 mph 16.1 mph 70 % 0.00 in
18:36 62.5 °F 52.6 °F 29.83 in SSW 6.6 mph 11.5 mph 70 % 0.00 in
18:42 62.3 °F 52.8 °F 29.83 in South 5.7 mph 13.8 mph 71 % 0.00 in
18:47 62.2 °F 52.7 °F 29.82 in SSW 5.8 mph 16.1 mph 71 % 0.00 in
18:52 62.0 °F 52.5 °F 29.82 in SSE 6.2 mph 9.2 mph 71 % 0.00 in
18:57 61.7 °F 52.6 °F 29.83 in SSW 6.6 mph 15.0 mph 72 % 0.00 in
19:02 61.5 °F 52.4 °F 29.82 in SSW 9.0 mph 15.0 mph 72 % 0.00 in
19:07 61.2 °F 52.5 °F 29.82 in SSW 5.6 mph 11.5 mph 73 % 0.00 in
19:17 60.6 °F 52.3 °F 29.82 in SSW 5.6 mph 8.1 mph 74 % 0.00 in
19:22 60.4 °F 52.4 °F 29.82 in SSW 6.8 mph 11.5 mph 75 % 0.00 in
19:28 60.2 °F 52.6 °F 29.82 in WSW 9.0 mph 12.0 mph 76 % 0.00 in
19:33 60.0 °F 52.8 °F 29.82 in SSW 9.1 mph 15.0 mph 77 % 0.00 in
19:38 60.0 °F 52.8 °F 29.82 in South 5.8 mph 11.5 mph 77 % 0.00 in
19:48 59.8 °F 52.9 °F 29.81 in SSW 6.6 mph 10.4 mph 78 % 0.00 in
19:53 59.8 °F 53.3 °F 29.82 in South 4.5 mph 13.0 mph 79 % 0.00 in
19:58 59.7 °F 53.2 °F 29.81 in SSW 9.7 mph 16.1 mph 79 % 0.00 in
20:08 59.5 °F 53.3 °F 29.81 in SSE 8.4 mph 13.8 mph 80 % 0.00 in
20:13 59.5 °F 53.3 °F 29.81 in SSW 8.8 mph 10.4 mph 80 % 0.00 in
20:19 59.5 °F 53.7 °F 29.81 in SSW 6.7 mph 11.5 mph 81 % 0.00 in
20:24 59.5 °F 54.0 °F 29.82 in SSW 7.5 mph 17.3 mph 82 % 0.00 in
20:29 59.6 °F 54.1 °F 29.82 in WSW 9.6 mph 19.6 mph 82 % 0.00 in
20:34 59.6 °F 54.4 °F 29.81 in SSW 6.5 mph 10.4 mph 83 % 0.00 in
20:39 59.8 °F 55.0 °F 29.81 in South 9.4 mph 17.3 mph 84 % 0.00 in
20:44 60.0 °F 55.5 °F 29.81 in SW 7.7 mph 15.0 mph 85 % 0.00 in
20:49 60.1 °F 55.6 °F 29.81 in South 8.1 mph 12.7 mph 85 % 0.00 in
20:54 60.1 °F 55.9 °F 29.81 in SSW 5.2 mph 16.1 mph 86 % 0.00 in
20:59 60.2 °F 56.0 °F 29.81 in South 8.2 mph 17.0 mph 86 % 0.00 in
21:04 60.2 °F 56.0 °F 29.81 in SW 6.8 mph 13.8 mph 86 % 0.00 in
21:10 60.0 °F 55.8 °F 29.81 in SW 8.2 mph 15.0 mph 86 % 0.00 in
21:15 59.9 °F 55.7 °F 29.81 in SW 7.5 mph 17.3 mph 86 % 0.00 in
21:20 59.7 °F 55.8 °F 29.81 in SSW 11.9 mph 21.0 mph 87 % 0.00 in
21:25 59.5 °F 55.6 °F 29.81 in South 6.2 mph 11.5 mph 87 % 0.00 in
21:30 59.4 °F 55.5 °F 29.81 in South 7.3 mph 13.8 mph 87 % 0.00 in
21:35 59.3 °F 55.7 °F 29.81 in SW 7.8 mph 15.0 mph 88 % 0.00 in
21:40 59.2 °F 55.6 °F 29.81 in South 7.9 mph 16.1 mph 88 % 0.00 in
21:45 59.2 °F 56.0 °F 29.81 in SSW 8.8 mph 16.1 mph 89 % 0.00 in
21:50 59.3 °F 56.1 °F 29.80 in WSW 11.7 mph 12.7 mph 89 % 0.00 in
21:55 59.4 °F 56.5 °F 29.79 in SSW 11.5 mph 18.4 mph 90 % 0.00 in
22:01 59.6 °F 56.7 °F 29.79 in SW 10.7 mph 16.1 mph 90 % 0.00 in
22:06 59.8 °F 56.9 °F 29.79 in SSE 6.9 mph 11.5 mph 90 % 0.00 in
22:11 59.8 °F 56.9 °F 29.79 in South 9.0 mph 16.1 mph 90 % 0.00 in
22:16 59.9 °F 57.0 °F 29.79 in SSW 8.5 mph 16.1 mph 90 % 0.00 in
22:21 59.8 °F 56.9 °F 29.78 in SE 6.9 mph 15.0 mph 90 % 0.00 in
22:26 59.8 °F 56.6 °F 29.78 in SSW 10.6 mph 18.4 mph 89 % 0.00 in
22:31 59.8 °F 56.9 °F 29.78 in South 9.5 mph 19.6 mph 90 % 0.00 in
22:36 59.8 °F 56.9 °F 29.78 in SSW 12.0 mph 19.0 mph 90 % 0.00 in
22:41 59.9 °F 57.3 °F 29.78 in SSW 10.4 mph 17.3 mph 91 % 0.00 in
22:46 60.1 °F 57.5 °F 29.78 in South 12.8 mph 17.3 mph 91 % 0.00 in
22:52 60.2 °F 57.6 °F 29.78 in SSW 12.1 mph 18.4 mph 91 % 0.00 in
22:57 60.2 °F 57.6 °F 29.78 in South 8.5 mph 18.4 mph 91 % 0.00 in
23:02 60.2 °F 57.6 °F 29.78 in SW 9.6 mph 18.4 mph 91 % 0.00 in
23:07 60.1 °F 57.5 °F 29.77 in South 9.5 mph 16.1 mph 91 % 0.00 in
23:12 60.0 °F 57.4 °F 29.77 in South 10.2 mph 15.0 mph 91 % 0.00 in
23:17 59.9 °F 57.3 °F 29.77 in SSW 9.5 mph 18.4 mph 91 % 0.00 in
23:22 59.9 °F 57.3 °F 29.77 in SSW 12.0 mph 19.6 mph 91 % 0.00 in
23:27 60.1 °F 57.8 °F 29.76 in SSW 9.1 mph 20.0 mph 92 % 0.00 in
23:32 60.3 °F 58.0 °F 29.76 in South 9.4 mph 18.4 mph 92 % 0.00 in
23:37 60.6 °F 58.3 °F 29.76 in SSW 9.5 mph 12.7 mph 92 % 0.00 in
23:43 60.7 °F 58.4 °F 29.76 in South 11.3 mph 20.7 mph 92 % 0.00 in
23:48 60.8 °F 58.5 °F 29.76 in SW 8.7 mph 19.0 mph 92 % 0.00 in
23:53 60.7 °F 58.4 °F 29.77 in South 9.0 mph 15.0 mph 92 % 0.00 in
23:58 60.7 °F 58.4 °F 29.76 in South 12.6 mph 19.6 mph 92 % 0.00 in
Crab Meadow Weather
Compliments of Weather Underground - 3 mb

Script developed by  Jim McMurry - jmcmurry@mwt.net Adapted for the template by  Wim van der Kuil - Leuven-Template.eu

Weather Terms: Dense Fog Advisory - Widespread dense fog reducing visibility to less than 1/4 mile.